createdAt,value
2018-09-23T00:03:17.312Z,11.90
2018-09-23T00:08:21.291Z,11.90
2018-09-23T00:13:25.216Z,11.90
2018-09-23T00:18:28.908Z,11.80
2018-09-23T00:23:32.589Z,11.90
2018-09-23T00:28:36.082Z,11.90
2018-09-23T00:33:39.564Z,11.80
2018-09-23T00:38:43.640Z,11.90
2018-09-23T00:43:48.055Z,11.90
2018-09-23T00:48:52.253Z,12.00
2018-09-23T00:53:56.213Z,12.00
2018-09-23T00:59:00.061Z,12.00
2018-09-23T01:04:03.690Z,12.10
2018-09-23T01:09:09.390Z,12.10
2018-09-23T01:14:13.211Z,12.10
2018-09-23T01:19:17.195Z,12.30
2018-09-23T01:24:21.130Z,12.40
2018-09-23T01:34:53.041Z,12.60
2018-09-23T01:39:56.984Z,12.60
2018-09-23T01:45:01.251Z,12.70
2018-09-23T01:50:05.286Z,12.70
2018-09-23T01:55:09.065Z,12.80
2018-09-23T02:00:12.535Z,12.80
2018-09-23T02:05:16.047Z,12.90
2018-09-23T02:10:19.557Z,12.90
2018-09-23T02:15:23.076Z,12.90
2018-09-23T02:20:26.758Z,12.90
2018-09-23T02:25:31.353Z,12.80
2018-09-23T02:30:35.380Z,12.80
2018-09-23T02:35:39.320Z,12.90
2018-09-23T02:40:43.444Z,12.90
2018-09-23T02:45:47.005Z,12.90
2018-09-23T02:50:50.519Z,13.00
2018-09-23T02:55:53.996Z,13.20
2018-09-23T03:00:57.482Z,13.30
2018-09-23T03:06:01.599Z,13.50
2018-09-23T03:11:05.834Z,13.50
2018-09-23T03:16:09.499Z,13.60
2018-09-23T03:21:13.453Z,13.60
2018-09-23T03:26:16.994Z,13.60
2018-09-23T03:31:20.519Z,13.60
2018-09-23T03:36:24.501Z,13.60
2018-09-23T03:41:28.154Z,13.70
2018-09-23T03:46:31.984Z,13.70
2018-09-23T03:51:35.909Z,13.80
2018-09-23T03:56:39.908Z,13.70
2018-09-23T04:01:43.911Z,13.80
2018-09-23T04:06:48.097Z,13.80
2018-09-23T04:11:51.677Z,13.90
2018-09-23T04:16:56.395Z,13.90
2018-09-23T04:21:59.945Z,13.90
2018-09-23T04:27:04.047Z,13.90
2018-09-23T04:32:07.728Z,14.10
2018-09-23T04:37:11.738Z,14.20
2018-09-23T04:42:15.493Z,14.30
2018-09-23T04:47:19.014Z,14.50
2018-09-23T04:52:22.628Z,14.60
2018-09-23T04:57:26.276Z,14.70
2018-09-23T05:02:30.713Z,14.70
2018-09-23T05:07:34.314Z,14.80
2018-09-23T05:12:38.153Z,15.00
2018-09-23T05:17:41.867Z,15.10
2018-09-23T05:22:45.341Z,15.20
2018-09-23T05:27:48.849Z,15.30
2018-09-23T05:32:52.431Z,15.40
2018-09-23T05:37:55.933Z,15.60
2018-09-23T05:42:59.447Z,15.60
2018-09-23T05:48:02.908Z,15.60
2018-09-23T05:53:06.530Z,15.50
2018-09-23T05:58:09.990Z,15.50
2018-09-23T06:03:15.239Z,15.50
2018-09-23T06:08:19.418Z,15.70
2018-09-23T06:13:22.961Z,15.80
2018-09-23T06:18:26.695Z,16.00
2018-09-23T06:23:30.391Z,16.30
2018-09-23T06:28:34.017Z,16.60
2018-09-23T06:33:39.126Z,16.80
2018-09-23T06:38:43.315Z,17.00
2018-09-23T06:43:47.181Z,17.00
2018-09-23T06:48:51.124Z,17.10
2018-09-23T06:53:54.643Z,17.30
2018-09-23T06:58:58.156Z,17.80
2018-09-23T07:04:01.973Z,18.30
2018-09-23T07:09:07.524Z,18.60
2018-09-23T07:14:11.337Z,18.50
2018-09-23T07:19:16.398Z,18.60
2018-09-23T07:24:19.882Z,18.60
2018-09-23T07:29:23.534Z,18.60
2018-09-23T07:34:28.299Z,19.00
2018-09-23T07:39:32.210Z,19.00
2018-09-23T07:44:36.152Z,18.80
2018-09-23T07:49:40.021Z,18.70
2018-09-23T07:54:43.959Z,18.90
2018-09-23T07:59:47.437Z,19.00
2018-09-23T08:04:51.121Z,18.90
2018-09-23T08:09:54.654Z,19.10
2018-09-23T08:14:58.467Z,19.70
2018-09-23T08:20:03.142Z,20.40
2018-09-23T08:25:06.967Z,21.80
2018-09-23T08:30:11.703Z,22.70
2018-09-23T08:35:15.545Z,22.10
2018-09-23T08:40:19.093Z,21.50
2018-09-23T08:45:22.603Z,21.00
2018-09-23T08:50:26.231Z,20.50
2018-09-23T08:55:31.828Z,20.60
2018-09-23T09:00:36.208Z,20.60
2018-09-23T09:05:39.645Z,20.50
2018-09-23T09:10:43.313Z,21.50
2018-09-23T09:15:46.831Z,23.10
2018-09-23T09:20:50.369Z,22.90
2018-09-23T09:25:54.742Z,22.00
2018-09-23T09:30:58.885Z,24.30
2018-09-23T09:36:03.555Z,27.30
2018-09-23T09:41:22.674Z,27.40
2018-09-23T09:46:26.560Z,26.60
2018-09-23T09:51:30.102Z,25.50
2018-09-23T09:56:34.079Z,25.50
2018-09-23T10:01:38.487Z,26.80
2018-09-23T10:06:42.488Z,26.60
2018-09-23T10:11:46.808Z,26.10
2018-09-23T10:16:50.717Z,25.60
2018-09-23T10:21:54.577Z,25.20
2018-09-23T10:26:58.295Z,25.30
2018-09-23T10:32:03.081Z,24.90
2018-09-23T10:37:07.234Z,24.60
2018-09-23T10:42:10.927Z,25.10
2018-09-23T10:47:14.925Z,25.50
2018-09-23T10:52:22.991Z,25.20
2018-09-23T10:57:29.959Z,25.20
2018-09-23T11:02:35.908Z,24.40
2018-09-23T11:07:39.598Z,24.60
2018-09-23T11:12:43.756Z,24.20
2018-09-23T11:17:47.607Z,24.90
2018-09-23T11:22:51.224Z,24.70
2018-09-23T11:27:55.083Z,24.20
2018-09-23T11:32:58.664Z,24.10
2018-09-23T11:38:03.059Z,24.90
2018-09-23T11:43:07.153Z,25.00
2018-09-23T11:48:11.809Z,24.80
2018-09-23T11:53:15.372Z,25.20
2018-09-23T11:58:18.876Z,24.70
2018-09-23T12:03:22.443Z,24.30
2018-09-23T12:08:26.833Z,24.30
2018-09-23T12:13:32.864Z,24.20
2018-09-23T12:18:36.664Z,23.90
2018-09-23T12:23:40.330Z,24.40
2018-09-23T12:28:43.946Z,24.00
2018-09-23T12:33:47.661Z,23.80
2018-09-23T12:38:51.315Z,24.20
2018-09-23T12:43:54.989Z,24.10
2018-09-23T12:48:58.725Z,23.80
2018-09-23T12:54:02.940Z,23.70
2018-09-23T12:59:06.836Z,23.60
2018-09-23T13:04:10.578Z,23.60
2018-09-23T13:09:14.196Z,23.50
2018-09-23T13:14:20.657Z,23.70
2018-09-23T13:19:24.804Z,23.90
2018-09-23T13:24:29.095Z,24.20
2018-09-23T13:29:32.951Z,24.40
2018-09-23T13:34:36.550Z,25.10
2018-09-23T13:39:40.503Z,25.60
2018-09-23T13:44:44.567Z,25.40
2018-09-23T13:49:48.877Z,24.70
2018-09-23T13:54:53.145Z,24.90
2018-09-23T13:59:58.474Z,25.20
2018-09-23T14:05:05.145Z,24.90
2018-09-23T14:10:09.181Z,24.40
2018-09-23T14:15:13.013Z,24.50
2018-09-23T14:20:16.984Z,24.50
2018-09-23T14:25:21.111Z,24.40
2018-09-23T14:30:25.290Z,24.60
2018-09-23T14:35:29.201Z,24.40
2018-09-23T14:40:33.937Z,24.30
2018-09-23T14:45:37.803Z,24.60
2018-09-23T14:50:41.604Z,24.60
2018-09-23T14:55:45.157Z,24.30
2018-09-23T15:00:49.516Z,24.20
2018-09-23T15:05:53.105Z,23.90
2018-09-23T15:10:56.893Z,23.80
2018-09-23T15:16:00.645Z,23.80
2018-09-23T15:21:04.542Z,24.00
2018-09-23T15:26:08.205Z,24.10
2018-09-23T15:31:11.806Z,24.00
2018-09-23T15:36:15.542Z,23.90
2018-09-23T15:41:19.202Z,23.80
2018-09-23T15:46:24.190Z,24.00
2018-09-23T15:51:28.721Z,23.90
2018-09-23T15:56:32.908Z,23.90
2018-09-23T16:01:36.794Z,23.80
2018-09-23T16:06:40.325Z,23.70
2018-09-23T16:11:43.903Z,23.50
2018-09-23T16:16:47.711Z,23.10
2018-09-23T16:21:51.642Z,22.80
2018-09-23T16:26:55.331Z,22.70
2018-09-23T16:31:59.299Z,22.60
2018-09-23T16:37:03.048Z,22.60
2018-09-23T16:42:10.768Z,22.60
2018-09-23T16:47:14.781Z,22.70
2018-09-23T16:52:18.946Z,22.60
2018-09-23T16:57:23.831Z,22.50
2018-09-23T17:02:27.522Z,22.40
2018-09-23T17:07:31.280Z,22.40
2018-09-23T17:12:35.566Z,22.30
2018-09-23T17:17:42.087Z,22.20
2018-09-23T17:22:46.579Z,22.20
2018-09-23T17:27:50.826Z,22.20
2018-09-23T17:32:55.128Z,21.60
2018-09-23T17:37:59.201Z,19.30
2018-09-23T17:43:03.192Z,17.90
2018-09-23T17:48:06.847Z,16.90
2018-09-23T17:53:10.454Z,16.50
2018-09-23T17:58:14.025Z,16.40
2018-09-23T18:03:17.671Z,16.30
2018-09-23T18:08:21.447Z,16.30
2018-09-23T18:13:26.733Z,16.30
2018-09-23T18:18:31.507Z,16.20
2018-09-23T18:23:35.207Z,16.10
2018-09-23T18:28:38.842Z,16.10
2018-09-23T18:33:42.610Z,16.10
2018-09-23T18:38:48.318Z,16.00
2018-09-23T18:43:52.388Z,15.90
2018-09-23T18:48:56.704Z,15.70
2018-09-23T18:54:05.726Z,15.70
2018-09-23T18:59:09.658Z,15.60
2018-09-23T19:04:13.716Z,15.40
2018-09-23T19:09:17.752Z,15.30
2018-09-23T19:14:22.226Z,15.20
2018-09-23T19:19:31.580Z,15.00
2018-09-23T19:24:36.183Z,14.80
2018-09-23T19:29:39.853Z,14.70
2018-09-23T19:34:43.396Z,13.80
2018-09-23T19:39:47.634Z,13.10
2018-09-23T19:44:51.586Z,12.50
2018-09-23T19:49:55.700Z,12.30
2018-09-23T19:54:59.517Z,12.00
2018-09-23T20:00:03.925Z,11.90
2018-09-23T20:05:08.128Z,11.90
2018-09-23T20:10:11.683Z,11.90
2018-09-23T20:15:17.677Z,11.90
2018-09-23T20:20:21.700Z,11.70
2018-09-23T20:25:26.012Z,11.60
2018-09-23T20:30:29.712Z,11.40
2018-09-23T20:35:33.239Z,11.40
2018-09-23T20:40:37.163Z,11.40
2018-09-23T20:45:41.904Z,11.40
2018-09-23T20:50:45.873Z,11.30
2018-09-23T20:55:49.906Z,11.40
2018-09-23T21:00:53.497Z,11.30
2018-09-23T21:05:57.065Z,11.20
2018-09-23T21:11:00.590Z,11.00
2018-09-23T21:16:04.188Z,10.90
2018-09-23T21:21:08.247Z,10.90
2018-09-23T21:26:11.997Z,10.70
2018-09-23T21:31:15.731Z,10.70
2018-09-23T21:36:19.834Z,10.70
2018-09-23T21:41:23.729Z,10.70
2018-09-23T21:46:27.370Z,10.60
2018-09-23T21:51:31.335Z,10.70
2018-09-23T21:56:34.871Z,10.60
2018-09-23T22:01:38.452Z,10.60
2018-09-23T22:06:42.293Z,10.50
2018-09-23T22:11:46.067Z,10.50
2018-09-23T22:16:50.345Z,10.50
2018-09-23T22:21:54.045Z,10.40
2018-09-23T22:26:57.683Z,10.30
2018-09-23T22:32:01.407Z,10.20
2018-09-23T22:37:05.023Z,10.30
2018-09-23T22:42:09.037Z,10.20
2018-09-23T22:47:12.890Z,10.20
2018-09-23T22:52:16.671Z,9.90
2018-09-23T22:57:20.797Z,9.70
2018-09-23T23:02:24.744Z,9.70
2018-09-23T23:07:28.401Z,9.80
2018-09-23T23:12:31.900Z,9.90
2018-09-23T23:17:35.488Z,10.00
2018-09-23T23:22:39.160Z,10.10
2018-09-23T23:27:42.678Z,10.00
2018-09-23T23:32:46.536Z,10.00
2018-09-23T23:37:51.002Z,10.10
2018-09-23T23:42:54.865Z,10.10
2018-09-23T23:47:58.851Z,10.10
2018-09-23T23:53:02.742Z,10.10
2018-09-23T23:58:06.648Z,10.10
